sensor_id;sensor_type;location;lat;lon;timestamp;P1;durP1;ratioP1;P2;durP2;ratioP2
30337;SDS011;17143;51.888;5.408;2022-09-30T00:08:24;10.33;;;6.23;;
30337;SDS011;17143;51.888;5.408;2022-09-30T00:23:27;8.47;;;5.90;;
30337;SDS011;17143;51.888;5.408;2022-09-30T00:38:29;8.93;;;6.27;;
30337;SDS011;17143;51.888;5.408;2022-09-30T00:53:33;6.83;;;5.77;;
30337;SDS011;17143;51.888;5.408;2022-09-30T01:08:39;6.40;;;4.70;;
30337;SDS011;17143;51.888;5.408;2022-09-30T01:23:46;7.00;;;5.73;;
30337;SDS011;17143;51.888;5.408;2022-09-30T01:39:07;7.57;;;5.60;;
30337;SDS011;17143;51.888;5.408;2022-09-30T01:54:23;8.23;;;5.67;;
30337;SDS011;17143;51.888;5.408;2022-09-30T02:09:28;7.20;;;5.97;;
30337;SDS011;17143;51.888;5.408;2022-09-30T02:24:34;8.83;;;5.80;;
30337;SDS011;17143;51.888;5.408;2022-09-30T02:39:38;8.17;;;5.93;;
30337;SDS011;17143;51.888;5.408;2022-09-30T02:54:46;11.23;;;6.90;;
30337;SDS011;17143;51.888;5.408;2022-09-30T03:09:57;8.70;;;6.63;;
30337;SDS011;17143;51.888;5.408;2022-09-30T03:25:02;10.10;;;6.80;;
30337;SDS011;17143;51.888;5.408;2022-09-30T03:40:16;10.73;;;6.97;;
30337;SDS011;17143;51.888;5.408;2022-09-30T03:55:26;7.03;;;5.50;;
30337;SDS011;17143;51.888;5.408;2022-09-30T04:10:29;6.97;;;5.00;;
30337;SDS011;17143;51.888;5.408;2022-09-30T04:25:31;6.20;;;5.17;;
30337;SDS011;17143;51.888;5.408;2022-09-30T04:40:34;5.63;;;4.40;;
30337;SDS011;17143;51.888;5.408;2022-09-30T04:55:37;4.67;;;4.07;;
30337;SDS011;17143;51.888;5.408;2022-09-30T05:10:39;10.30;;;5.33;;
30337;SDS011;17143;51.888;5.408;2022-09-30T05:25:41;9.63;;;5.50;;
30337;SDS011;17143;51.888;5.408;2022-09-30T05:40:43;5.53;;;4.47;;
30337;SDS011;17143;51.888;5.408;2022-09-30T05:55:45;6.37;;;4.37;;
30337;SDS011;17143;51.888;5.408;2022-09-30T06:10:48;8.83;;;6.40;;
30337;SDS011;17143;51.888;5.408;2022-09-30T06:25:50;11.77;;;7.70;;
30337;SDS011;17143;51.888;5.408;2022-09-30T06:40:53;14.33;;;9.20;;
30337;SDS011;17143;51.888;5.408;2022-09-30T06:55:55;11.80;;;9.20;;
30337;SDS011;17143;51.888;5.408;2022-09-30T07:10:58;12.93;;;10.27;;
30337;SDS011;17143;51.888;5.408;2022-09-30T07:26:01;15.43;;;11.13;;
30337;SDS011;17143;51.888;5.408;2022-09-30T07:41:05;15.07;;;11.87;;
30337;SDS011;17143;51.888;5.408;2022-09-30T07:56:08;12.33;;;10.87;;
30337;SDS011;17143;51.888;5.408;2022-09-30T08:11:11;15.73;;;11.63;;
30337;SDS011;17143;51.888;5.408;2022-09-30T08:26:14;14.57;;;10.93;;
30337;SDS011;17143;51.888;5.408;2022-09-30T08:41:24;14.77;;;10.90;;
30337;SDS011;17143;51.888;5.408;2022-09-30T08:56:33;12.23;;;9.93;;
30337;SDS011;17143;51.888;5.408;2022-09-30T09:11:41;13.67;;;9.73;;
30337;SDS011;17143;51.888;5.408;2022-09-30T09:26:53;11.40;;;8.30;;
30337;SDS011;17143;51.888;5.408;2022-09-30T09:41:58;10.47;;;7.00;;
30337;SDS011;17143;51.888;5.408;2022-09-30T09:57:07;10.00;;;6.90;;
30337;SDS011;17143;51.888;5.408;2022-09-30T10:12:28;11.07;;;6.50;;
30337;SDS011;17143;51.888;5.408;2022-09-30T10:27:31;9.10;;;6.53;;
30337;SDS011;17143;51.888;5.408;2022-09-30T10:42:34;4.63;;;4.10;;
30337;SDS011;17143;51.888;5.408;2022-09-30T10:57:41;6.53;;;4.57;;
30337;SDS011;17143;51.888;5.408;2022-09-30T11:12:43;5.90;;;4.80;;
30337;SDS011;17143;51.888;5.408;2022-09-30T11:27:56;4.10;;;2.43;;
30337;SDS011;17143;51.888;5.408;2022-09-30T11:43:06;2.13;;;1.70;;
30337;SDS011;17143;51.888;5.408;2022-09-30T11:58:20;1.20;;;1.00;;
30337;SDS011;17143;51.888;5.408;2022-09-30T12:13:25;3.07;;;1.27;;
30337;SDS011;17143;51.888;5.408;2022-09-30T12:28:32;1.47;;;1.20;;
30337;SDS011;17143;51.888;5.408;2022-09-30T12:59:11;4.00;;;1.90;;
30337;SDS011;17143;51.888;5.408;2022-09-30T13:14:20;2.50;;;2.20;;
30337;SDS011;17143;51.888;5.408;2022-09-30T13:29:31;5.53;;;3.43;;
30337;SDS011;17143;51.888;5.408;2022-09-30T13:44:39;3.73;;;2.60;;
30337;SDS011;17143;51.888;5.408;2022-09-30T14:00:02;4.20;;;3.03;;
30337;SDS011;17143;51.888;5.408;2022-09-30T14:30:44;5.37;;;2.43;;
30337;SDS011;17143;51.888;5.408;2022-09-30T14:45:49;3.90;;;2.30;;
30337;SDS011;17143;51.888;5.408;2022-09-30T15:00:57;7.57;;;3.50;;
30337;SDS011;17143;51.888;5.408;2022-09-30T15:16:02;3.63;;;2.53;;
30337;SDS011;17143;51.888;5.408;2022-09-30T15:31:04;4.50;;;2.50;;
30337;SDS011;17143;51.888;5.408;2022-09-30T15:46:20;8.20;;;2.10;;
30337;SDS011;17143;51.888;5.408;2022-09-30T16:01:24;5.13;;;2.30;;
30337;SDS011;17143;51.888;5.408;2022-09-30T16:16:32;3.30;;;2.20;;
30337;SDS011;17143;51.888;5.408;2022-09-30T16:31:36;4.13;;;2.10;;
30337;SDS011;17143;51.888;5.408;2022-09-30T16:46:38;4.67;;;2.27;;
30337;SDS011;17143;51.888;5.408;2022-09-30T17:01:40;4.67;;;2.40;;
30337;SDS011;17143;51.888;5.408;2022-09-30T17:16:42;5.70;;;2.47;;
30337;SDS011;17143;51.888;5.408;2022-09-30T17:31:44;3.47;;;2.70;;
30337;SDS011;17143;51.888;5.408;2022-09-30T17:46:46;4.37;;;2.57;;
30337;SDS011;17143;51.888;5.408;2022-09-30T18:01:48;3.60;;;2.97;;
30337;SDS011;17143;51.888;5.408;2022-09-30T18:16:50;5.17;;;3.33;;
30337;SDS011;17143;51.888;5.408;2022-09-30T18:31:52;4.27;;;3.37;;
30337;SDS011;17143;51.888;5.408;2022-09-30T18:46:54;5.20;;;3.70;;
30337;SDS011;17143;51.888;5.408;2022-09-30T19:01:56;6.50;;;4.43;;
30337;SDS011;17143;51.888;5.408;2022-09-30T19:16:58;16.30;;;11.70;;
30337;SDS011;17143;51.888;5.408;2022-09-30T19:32:01;4.57;;;3.47;;
30337;SDS011;17143;51.888;5.408;2022-09-30T19:47:03;4.03;;;3.17;;
30337;SDS011;17143;51.888;5.408;2022-09-30T20:02:05;5.30;;;3.00;;
30337;SDS011;17143;51.888;5.408;2022-09-30T20:17:07;3.90;;;2.77;;
30337;SDS011;17143;51.888;5.408;2022-09-30T20:32:09;6.00;;;3.50;;
30337;SDS011;17143;51.888;5.408;2022-09-30T20:47:11;11.40;;;4.77;;
30337;SDS011;17143;51.888;5.408;2022-09-30T21:02:13;6.00;;;3.90;;
30337;SDS011;17143;51.888;5.408;2022-09-30T21:17:15;4.93;;;3.40;;
30337;SDS011;17143;51.888;5.408;2022-09-30T21:32:17;4.87;;;3.80;;
30337;SDS011;17143;51.888;5.408;2022-09-30T21:47:19;4.63;;;3.10;;
30337;SDS011;17143;51.888;5.408;2022-09-30T22:02:21;4.77;;;3.07;;
30337;SDS011;17143;51.888;5.408;2022-09-30T22:17:23;8.33;;;3.43;;
30337;SDS011;17143;51.888;5.408;2022-09-30T22:32:25;6.30;;;3.03;;
30337;SDS011;17143;51.888;5.408;2022-09-30T22:47:27;2.97;;;2.70;;
30337;SDS011;17143;51.888;5.408;2022-09-30T23:02:30;6.73;;;3.47;;
30337;SDS011;17143;51.888;5.408;2022-09-30T23:17:32;2.80;;;2.57;;
30337;SDS011;17143;51.888;5.408;2022-09-30T23:32:33;4.80;;;3.50;;
30337;SDS011;17143;51.888;5.408;2022-09-30T23:47:37;4.03;;;2.70;;
